sensor_id;sensor_type;location;lat;lon;timestamp;temperature;humidity
18658;DHT22;9458;50.942;5.074;2023-02-15T02:35:15;3.90;99.90
18658;DHT22;9458;50.942;5.074;2023-02-15T02:37:51;3.90;99.90
18658;DHT22;9458;50.942;5.074;2023-02-15T02:40:28;3.90;99.90
18658;DHT22;9458;50.942;5.074;2023-02-15T02:43:01;3.90;99.90
18658;DHT22;9458;50.942;5.074;2023-02-15T02:45:35;3.80;99.90
18658;DHT22;9458;50.942;5.074;2023-02-15T02:48:07;3.90;99.90
18658;DHT22;9458;50.942;5.074;2023-02-15T02:50:39;3.80;99.90
18658;DHT22;9458;50.942;5.074;2023-02-15T02:53:08;3.80;99.90
18658;DHT22;9458;50.942;5.074;2023-02-15T02:55:39;3.80;99.90
18658;DHT22;9458;50.942;5.074;2023-02-15T02:58:11;3.80;99.90
18658;DHT22;9458;50.942;5.074;2023-02-15T03:00:45;3.80;99.90
18658;DHT22;9458;50.942;5.074;2023-02-15T03:03:18;3.80;99.90
18658;DHT22;9458;50.942;5.074;2023-02-15T03:05:52;3.80;99.90
18658;DHT22;9458;50.942;5.074;2023-02-15T03:08:24;3.70;99.90
18658;DHT22;9458;50.942;5.074;2023-02-15T03:10:57;3.70;99.90
18658;DHT22;9458;50.942;5.074;2023-02-15T03:13:27;3.70;99.90
18658;DHT22;9458;50.942;5.074;2023-02-15T03:15:56;3.70;99.90
18658;DHT22;9458;50.942;5.074;2023-02-15T03:18:46;3.70;99.90
18658;DHT22;9458;50.942;5.074;2023-02-15T03:21:22;3.70;99.90
18658;DHT22;9458;50.942;5.074;2023-02-15T03:23:55;3.60;99.90
18658;DHT22;9458;50.942;5.074;2023-02-15T03:26:25;3.60;99.90
18658;DHT22;9458;50.942;5.074;2023-02-15T03:28:55;3.60;99.90
18658;DHT22;9458;50.942;5.074;2023-02-15T03:31:27;3.60;99.90
18658;DHT22;9458;50.942;5.074;2023-02-15T03:33:57;3.60;99.90
18658;DHT22;9458;50.942;5.074;2023-02-15T03:36:35;3.60;99.90
18658;DHT22;9458;50.942;5.074;2023-02-15T03:39:10;3.50;99.90
18658;DHT22;9458;50.942;5.074;2023-02-15T03:41:41;3.50;99.90
18658;DHT22;9458;50.942;5.074;2023-02-15T03:44:14;3.60;99.90
18658;DHT22;9458;50.942;5.074;2023-02-15T03:46:46;3.50;99.90
18658;DHT22;9458;50.942;5.074;2023-02-15T03:49:19;3.50;99.90
18658;DHT22;9458;50.942;5.074;2023-02-15T03:51:51;3.50;99.90
18658;DHT22;9458;50.942;5.074;2023-02-15T03:54:24;3.50;99.90
18658;DHT22;9458;50.942;5.074;2023-02-15T03:57:19;3.50;99.90
18658;DHT22;9458;50.942;5.074;2023-02-15T04:00:08;3.50;99.90
18658;DHT22;9458;50.942;5.074;2023-02-15T04:03:09;3.50;99.90
18658;DHT22;9458;50.942;5.074;2023-02-15T04:05:38;3.50;99.90
18658;DHT22;9458;50.942;5.074;2023-02-15T04:08:07;3.50;99.90
18658;DHT22;9458;50.942;5.074;2023-02-15T04:10:34;3.50;99.90
18658;DHT22;9458;50.942;5.074;2023-02-15T04:13:20;3.50;99.90
18658;DHT22;9458;50.942;5.074;2023-02-15T04:15:50;3.50;99.90
18658;DHT22;9458;50.942;5.074;2023-02-15T04:18:33;3.50;99.90
18658;DHT22;9458;50.942;5.074;2023-02-15T04:21:20;3.40;99.90
18658;DHT22;9458;50.942;5.074;2023-02-15T04:24:07;3.40;99.90
18658;DHT22;9458;50.942;5.074;2023-02-15T04:26:51;3.40;99.90
18658;DHT22;9458;50.942;5.074;2023-02-15T04:29:20;3.40;99.90
18658;DHT22;9458;50.942;5.074;2023-02-15T04:31:48;3.30;99.90
18658;DHT22;9458;50.942;5.074;2023-02-15T04:34:16;3.30;99.90
18658;DHT22;9458;50.942;5.074;2023-02-15T04:36:44;3.30;99.90
18658;DHT22;9458;50.942;5.074;2023-02-15T04:39:14;3.30;99.90
18658;DHT22;9458;50.942;5.074;2023-02-15T04:41:42;3.30;99.90
18658;DHT22;9458;50.942;5.074;2023-02-15T04:44:10;3.30;99.90
18658;DHT22;9458;50.942;5.074;2023-02-15T04:46:38;3.30;99.90
18658;DHT22;9458;50.942;5.074;2023-02-15T04:49:05;3.30;99.90
18658;DHT22;9458;50.942;5.074;2023-02-15T04:51:34;3.30;99.90
18658;DHT22;9458;50.942;5.074;2023-02-15T04:54:01;3.30;99.90
18658;DHT22;9458;50.942;5.074;2023-02-15T04:56:31;3.30;99.90
18658;DHT22;9458;50.942;5.074;2023-02-15T04:59:00;3.30;99.90
18658;DHT22;9458;50.942;5.074;2023-02-15T05:01:28;3.30;99.90
18658;DHT22;9458;50.942;5.074;2023-02-15T05:03:55;3.20;99.90
18658;DHT22;9458;50.942;5.074;2023-02-15T05:06:23;3.20;99.90
18658;DHT22;9458;50.942;5.074;2023-02-15T05:08:51;3.20;99.90
18658;DHT22;9458;50.942;5.074;2023-02-15T05:11:18;3.20;99.90
18658;DHT22;9458;50.942;5.074;2023-02-15T05:13:51;3.20;99.90
18658;DHT22;9458;50.942;5.074;2023-02-15T05:16:19;3.10;99.90
18658;DHT22;9458;50.942;5.074;2023-02-15T05:18:46;3.10;99.90
18658;DHT22;9458;50.942;5.074;2023-02-15T05:21:14;3.10;99.90
18658;DHT22;9458;50.942;5.074;2023-02-15T05:23:44;3.10;99.90
18658;DHT22;9458;50.942;5.074;2023-02-15T05:26:15;3.10;99.90
18658;DHT22;9458;50.942;5.074;2023-02-15T05:29:10;3.20;99.90
18658;DHT22;9458;50.942;5.074;2023-02-15T05:31:38;3.10;99.90
18658;DHT22;9458;50.942;5.074;2023-02-15T05:34:06;3.10;99.90
18658;DHT22;9458;50.942;5.074;2023-02-15T05:36:35;3.10;99.90
18658;DHT22;9458;50.942;5.074;2023-02-15T05:39:02;3.10;99.90
18658;DHT22;9458;50.942;5.074;2023-02-15T05:41:32;3.10;99.90
18658;DHT22;9458;50.942;5.074;2023-02-15T05:43:59;3.10;99.90
18658;DHT22;9458;50.942;5.074;2023-02-15T05:46:28;3.10;99.90
18658;DHT22;9458;50.942;5.074;2023-02-15T05:48:56;3.20;99.90
18658;DHT22;9458;50.942;5.074;2023-02-15T05:51:24;3.10;99.90
18658;DHT22;9458;50.942;5.074;2023-02-15T05:53:51;3.10;99.90
18658;DHT22;9458;50.942;5.074;2023-02-15T05:56:18;3.10;99.90
18658;DHT22;9458;50.942;5.074;2023-02-15T05:58:46;3.10;99.90
18658;DHT22;9458;50.942;5.074;2023-02-15T06:01:16;3.00;99.90
18658;DHT22;9458;50.942;5.074;2023-02-15T06:03:47;3.00;99.90
18658;DHT22;9458;50.942;5.074;2023-02-15T06:06:16;3.00;99.90
18658;DHT22;9458;50.942;5.074;2023-02-15T06:08:44;3.00;99.90
18658;DHT22;9458;50.942;5.074;2023-02-15T06:11:12;3.00;99.90
18658;DHT22;9458;50.942;5.074;2023-02-15T06:13:44;3.00;99.90
18658;DHT22;9458;50.942;5.074;2023-02-15T06:16:13;3.00;99.90
18658;DHT22;9458;50.942;5.074;2023-02-15T06:18:41;3.00;99.90
18658;DHT22;9458;50.942;5.074;2023-02-15T06:21:12;3.00;99.90
18658;DHT22;9458;50.942;5.074;2023-02-15T06:23:40;3.00;99.90
18658;DHT22;9458;50.942;5.074;2023-02-15T06:26:07;3.00;99.90
18658;DHT22;9458;50.942;5.074;2023-02-15T06:28:35;3.00;99.90
18658;DHT22;9458;50.942;5.074;2023-02-15T06:31:03;3.00;99.90
18658;DHT22;9458;50.942;5.074;2023-02-15T06:33:31;3.00;99.90
18658;DHT22;9458;50.942;5.074;2023-02-15T06:36:00;2.90;99.90
18658;DHT22;9458;50.942;5.074;2023-02-15T06:38:30;3.00;99.90
18658;DHT22;9458;50.942;5.074;2023-02-15T06:40:58;3.00;99.90
18658;DHT22;9458;50.942;5.074;2023-02-15T06:43:25;3.00;99.90
18658;DHT22;9458;50.942;5.074;2023-02-15T06:45:54;3.00;99.90
18658;DHT22;9458;50.942;5.074;2023-02-15T06:48:21;3.00;99.90
18658;DHT22;9458;50.942;5.074;2023-02-15T06:50:58;3.00;99.90
18658;DHT22;9458;50.942;5.074;2023-02-15T06:53:31;3.00;99.90
18658;DHT22;9458;50.942;5.074;2023-02-15T06:56:02;3.00;99.90
18658;DHT22;9458;50.942;5.074;2023-02-15T06:58:33;3.10;99.90
18658;DHT22;9458;50.942;5.074;2023-02-15T07:01:02;3.00;99.90
18658;DHT22;9458;50.942;5.074;2023-02-15T07:03:39;3.00;99.90
18658;DHT22;9458;50.942;5.074;2023-02-15T07:06:11;3.10;99.90
18658;DHT22;9458;50.942;5.074;2023-02-15T07:08:42;3.10;99.90
18658;DHT22;9458;50.942;5.074;2023-02-15T07:11:13;3.20;99.90
18658;DHT22;9458;50.942;5.074;2023-02-15T07:13:57;3.20;99.90
18658;DHT22;9458;50.942;5.074;2023-02-15T07:16:25;3.20;99.90
18658;DHT22;9458;50.942;5.074;2023-02-15T07:18:53;3.30;99.90
18658;DHT22;9458;50.942;5.074;2023-02-15T07:21:21;3.40;99.90
18658;DHT22;9458;50.942;5.074;2023-02-15T07:23:56;3.60;99.90
18658;DHT22;9458;50.942;5.074;2023-02-15T07:26:26;3.90;99.90
18658;DHT22;9458;50.942;5.074;2023-02-15T07:28:56;4.00;99.90
18658;DHT22;9458;50.942;5.074;2023-02-15T07:31:35;4.10;99.90
18658;DHT22;9458;50.942;5.074;2023-02-15T07:34:25;4.20;99.90
18658;DHT22;9458;50.942;5.074;2023-02-15T07:37:13;4.30;99.90
18658;DHT22;9458;50.942;5.074;2023-02-15T12:22:53;11.20;99.90
18658;DHT22;9458;50.942;5.074;2023-02-15T12:25:24;11.20;99.90
18658;DHT22;9458;50.942;5.074;2023-02-15T12:27:53;11.20;99.90
18658;DHT22;9458;50.942;5.074;2023-02-15T12:30:25;11.20;99.90
18658;DHT22;9458;50.942;5.074;2023-02-15T12:32:58;11.20;99.90
18658;DHT22;9458;50.942;5.074;2023-02-15T12:35:36;11.20;99.90
18658;DHT22;9458;50.942;5.074;2023-02-15T12:38:23;11.30;99.90
18658;DHT22;9458;50.942;5.074;2023-02-15T12:41:00;11.20;99.90
18658;DHT22;9458;50.942;5.074;2023-02-15T12:43:35;11.20;99.90
18658;DHT22;9458;50.942;5.074;2023-02-15T12:46:22;11.20;99.90
18658;DHT22;9458;50.942;5.074;2023-02-15T12:49:06;11.20;99.90
18658;DHT22;9458;50.942;5.074;2023-02-15T12:51:46;11.20;99.90
18658;DHT22;9458;50.942;5.074;2023-02-15T12:54:37;11.20;99.90
18658;DHT22;9458;50.942;5.074;2023-02-15T12:57:30;11.20;99.90
18658;DHT22;9458;50.942;5.074;2023-02-15T13:00:00;11.20;99.90
18658;DHT22;9458;50.942;5.074;2023-02-15T13:02:35;11.30;99.90
18658;DHT22;9458;50.942;5.074;2023-02-15T13:05:16;11.30;99.90
18658;DHT22;9458;50.942;5.074;2023-02-15T13:07:45;11.30;99.90
18658;DHT22;9458;50.942;5.074;2023-02-15T13:10:32;11.30;99.90
18658;DHT22;9458;50.942;5.074;2023-02-15T13:13:01;11.30;99.90
18658;DHT22;9458;50.942;5.074;2023-02-15T13:15:41;11.30;99.90
18658;DHT22;9458;50.942;5.074;2023-02-15T13:18:15;11.40;99.90
18658;DHT22;9458;50.942;5.074;2023-02-15T13:20:44;11.40;99.90
18658;DHT22;9458;50.942;5.074;2023-02-15T13:23:26;11.40;99.90
18658;DHT22;9458;50.942;5.074;2023-02-15T13:26:02;11.30;99.90
18658;DHT22;9458;50.942;5.074;2023-02-15T13:28:35;11.40;99.90
18658;DHT22;9458;50.942;5.074;2023-02-15T13:31:12;11.30;99.90
18658;DHT22;9458;50.942;5.074;2023-02-15T13:33:42;11.30;99.90
18658;DHT22;9458;50.942;5.074;2023-02-15T13:36:15;11.40;99.90
18658;DHT22;9458;50.942;5.074;2023-02-15T13:38:53;11.40;99.90
18658;DHT22;9458;50.942;5.074;2023-02-15T13:41:30;11.40;99.90
18658;DHT22;9458;50.942;5.074;2023-02-15T13:52:20;11.40;99.90
18658;DHT22;9458;50.942;5.074;2023-02-15T13:55:10;11.40;99.90
18658;DHT22;9458;50.942;5.074;2023-02-15T13:58:08;11.40;99.90
18658;DHT22;9458;50.942;5.074;2023-02-15T14:00:46;11.40;99.90
18658;DHT22;9458;50.942;5.074;2023-02-15T14:03:51;11.40;99.90
18658;DHT22;9458;50.942;5.074;2023-02-15T14:06:32;11.40;99.90
18658;DHT22;9458;50.942;5.074;2023-02-15T14:09:15;11.40;99.90
18658;DHT22;9458;50.942;5.074;2023-02-15T14:11:53;11.40;99.90
18658;DHT22;9458;50.942;5.074;2023-02-15T14:14:36;11.40;99.90
18658;DHT22;9458;50.942;5.074;2023-02-15T14:17:21;11.40;99.90
18658;DHT22;9458;50.942;5.074;2023-02-15T14:19:56;11.40;99.90
18658;DHT22;9458;50.942;5.074;2023-02-15T14:22:31;11.40;99.90
18658;DHT22;9458;50.942;5.074;2023-02-15T14:25:18;11.40;99.90
18658;DHT22;9458;50.942;5.074;2023-02-15T14:28:05;11.40;99.90
18658;DHT22;9458;50.942;5.074;2023-02-15T15:39:21;11.00;99.90
18658;DHT22;9458;50.942;5.074;2023-02-15T15:42:07;11.00;99.90
18658;DHT22;9458;50.942;5.074;2023-02-15T15:45:00;11.00;99.90
18658;DHT22;9458;50.942;5.074;2023-02-15T15:47:54;11.00;99.90
18658;DHT22;9458;50.942;5.074;2023-02-15T15:50:25;10.90;99.90
18658;DHT22;9458;50.942;5.074;2023-02-15T15:52:54;10.90;99.90
18658;DHT22;9458;50.942;5.074;2023-02-15T15:55:27;10.90;99.90
18658;DHT22;9458;50.942;5.074;2023-02-15T15:57:58;10.80;99.90
18658;DHT22;9458;50.942;5.074;2023-02-15T16:00:36;10.80;99.90
18658;DHT22;9458;50.942;5.074;2023-02-15T16:03:05;10.80;99.90
18658;DHT22;9458;50.942;5.074;2023-02-15T16:05:40;10.80;99.90
18658;DHT22;9458;50.942;5.074;2023-02-15T16:08:07;10.80;99.90
18658;DHT22;9458;50.942;5.074;2023-02-15T16:10:42;10.70;99.90
18658;DHT22;9458;50.942;5.074;2023-02-15T16:13:13;10.70;99.90
18658;DHT22;9458;50.942;5.074;2023-02-15T16:15:44;10.70;99.90
18658;DHT22;9458;50.942;5.074;2023-02-15T16:18:17;10.60;99.90
18658;DHT22;9458;50.942;5.074;2023-02-15T16:20:50;10.60;99.90
18658;DHT22;9458;50.942;5.074;2023-02-15T16:23:44;10.60;99.90
18658;DHT22;9458;50.942;5.074;2023-02-15T16:26:29;10.50;99.90
18658;DHT22;9458;50.942;5.074;2023-02-15T16:29:12;10.50;99.90
18658;DHT22;9458;50.942;5.074;2023-02-15T16:31:40;10.50;99.90
18658;DHT22;9458;50.942;5.074;2023-02-15T16:34:16;10.40;99.90
18658;DHT22;9458;50.942;5.074;2023-02-15T16:36:43;10.40;99.90
18658;DHT22;9458;50.942;5.074;2023-02-15T16:39:18;10.40;99.90
18658;DHT22;9458;50.942;5.074;2023-02-15T16:41:49;10.40;99.90
18658;DHT22;9458;50.942;5.074;2023-02-15T16:44:21;10.30;99.90
18658;DHT22;9458;50.942;5.074;2023-02-15T16:46:52;10.30;99.90
18658;DHT22;9458;50.942;5.074;2023-02-15T16:49:22;10.20;99.90
18658;DHT22;9458;50.942;5.074;2023-02-15T16:51:59;10.20;99.90
18658;DHT22;9458;50.942;5.074;2023-02-15T16:54:29;10.20;99.90
18658;DHT22;9458;50.942;5.074;2023-02-15T16:56:59;10.10;99.90
18658;DHT22;9458;50.942;5.074;2023-02-15T16:59:34;10.10;99.90
18658;DHT22;9458;50.942;5.074;2023-02-15T17:02:04;10.10;99.90
18658;DHT22;9458;50.942;5.074;2023-02-15T17:04:33;10.00;99.90
18658;DHT22;9458;50.942;5.074;2023-02-15T17:07:06;10.00;99.90
18658;DHT22;9458;50.942;5.074;2023-02-15T17:09:33;10.00;99.90
18658;DHT22;9458;50.942;5.074;2023-02-15T17:12:07;10.00;99.90
18658;DHT22;9458;50.942;5.074;2023-02-15T17:14:38;9.90;99.90
18658;DHT22;9458;50.942;5.074;2023-02-15T17:21:01;9.80;99.90
18658;DHT22;9458;50.942;5.074;2023-02-15T17:23:41;9.80;99.90
18658;DHT22;9458;50.942;5.074;2023-02-15T17:26:12;9.70;99.90
18658;DHT22;9458;50.942;5.074;2023-02-15T17:28:47;9.70;99.90
18658;DHT22;9458;50.942;5.074;2023-02-15T17:31:17;9.70;99.90
18658;DHT22;9458;50.942;5.074;2023-02-15T17:33:46;9.60;99.90
18658;DHT22;9458;50.942;5.074;2023-02-15T17:36:18;9.60;99.90
18658;DHT22;9458;50.942;5.074;2023-02-15T17:39:01;9.50;99.90
18658;DHT22;9458;50.942;5.074;2023-02-15T17:41:30;9.50;99.90
18658;DHT22;9458;50.942;5.074;2023-02-15T17:44:06;9.40;99.90
18658;DHT22;9458;50.942;5.074;2023-02-15T17:46:40;9.40;99.90
18658;DHT22;9458;50.942;5.074;2023-02-15T20:46:39;8.10;99.90
18658;DHT22;9458;50.942;5.074;2023-02-15T20:49:07;8.10;99.90
18658;DHT22;9458;50.942;5.074;2023-02-15T20:51:35;8.10;99.90
18658;DHT22;9458;50.942;5.074;2023-02-15T20:54:11;8.10;99.90
18658;DHT22;9458;50.942;5.074;2023-02-15T20:56:40;8.10;99.90
18658;DHT22;9458;50.942;5.074;2023-02-15T20:59:20;8.10;99.90
18658;DHT22;9458;50.942;5.074;2023-02-15T21:02:13;8.10;99.90
18658;DHT22;9458;50.942;5.074;2023-02-15T21:04:42;8.00;99.90
18658;DHT22;9458;50.942;5.074;2023-02-15T21:07:13;8.00;99.90
18658;DHT22;9458;50.942;5.074;2023-02-15T21:09:42;7.90;99.90
18658;DHT22;9458;50.942;5.074;2023-02-15T21:12:14;7.90;99.90
18658;DHT22;9458;50.942;5.074;2023-02-15T21:14:42;7.90;99.90
18658;DHT22;9458;50.942;5.074;2023-02-15T21:17:14;7.90;99.90
18658;DHT22;9458;50.942;5.074;2023-02-15T21:19:42;7.90;99.90
18658;DHT22;9458;50.942;5.074;2023-02-15T21:22:13;7.80;99.90
18658;DHT22;9458;50.942;5.074;2023-02-15T21:24:45;7.80;99.90
18658;DHT22;9458;50.942;5.074;2023-02-15T21:27:15;7.80;99.90
18658;DHT22;9458;50.942;5.074;2023-02-15T21:29:43;7.80;99.90
18658;DHT22;9458;50.942;5.074;2023-02-15T21:32:13;7.80;99.90
18658;DHT22;9458;50.942;5.074;2023-02-15T21:34:44;7.70;99.90
18658;DHT22;9458;50.942;5.074;2023-02-15T21:37:26;7.70;99.90
18658;DHT22;9458;50.942;5.074;2023-02-15T21:39:55;7.70;99.90
18658;DHT22;9458;50.942;5.074;2023-02-15T21:42:23;7.60;99.90
18658;DHT22;9458;50.942;5.074;2023-02-15T21:45:13;7.60;99.90
18658;DHT22;9458;50.942;5.074;2023-02-15T21:48:01;7.60;99.90
18658;DHT22;9458;50.942;5.074;2023-02-15T21:50:34;7.50;99.90
18658;DHT22;9458;50.942;5.074;2023-02-15T21:53:24;7.50;99.90
18658;DHT22;9458;50.942;5.074;2023-02-15T21:55:55;7.40;99.90
18658;DHT22;9458;50.942;5.074;2023-02-15T21:58:25;7.40;99.90
18658;DHT22;9458;50.942;5.074;2023-02-15T22:00:54;7.30;99.90
18658;DHT22;9458;50.942;5.074;2023-02-15T22:03:32;7.30;99.90
18658;DHT22;9458;50.942;5.074;2023-02-15T22:06:04;7.30;99.90
18658;DHT22;9458;50.942;5.074;2023-02-15T22:08:37;7.30;99.90
18658;DHT22;9458;50.942;5.074;2023-02-15T22:11:16;7.20;99.90
18658;DHT22;9458;50.942;5.074;2023-02-15T22:13:50;7.20;99.90
